Time;durP1;ratioP1;P1;durP2;ratioP2;P2;SDS_P1;SDS_P2;PMS_P1;PMS_P2;Temp;Humidity;BMP_temperature;BMP_pressure;BME280_temperature;BME280_humidity;BME280_pressure;Samples;Min_cycle;Max_cycle;Signal;HPM_P1;HPM_P2
2022/10/15 00:00:49;;;;;;;0.70;0.70;;;13.70;99.90;;;;;;5030793;28;20464;-68
2022/10/15 00:03:16;;;;;;;1.13;0.93;;;13.70;99.90;;;;;;5030162;28;21033;-67
2022/10/15 00:05:43;;;;;;;1.07;0.80;;;13.70;99.90;;;;;;5030925;28;20468;-68
2022/10/15 00:08:11;;;;;;;1.50;0.70;;;13.70;99.90;;;;;;5030814;28;20468;-68
2022/10/15 00:10:38;;;;;;;0.90;0.80;;;13.70;99.90;;;;;;5030765;28;20453;-68
2022/10/15 00:13:05;;;;;;;0.90;0.80;;;13.70;99.90;;;;;;5029951;28;20460;-68
2022/10/15 00:15:36;;;;;;;1.10;0.80;;;13.70;99.90;;;;;;5030838;28;20840;-68
2022/10/15 00:18:03;;;;;;;0.90;0.70;;;13.70;99.90;;;;;;5030584;28;20955;-68
2022/10/15 00:20:30;;;;;;;1.27;0.80;;;13.70;99.90;;;;;;5030127;28;20468;-68
2022/10/15 00:22:57;;;;;;;0.90;0.80;;;13.70;99.90;;;;;;5029863;28;20492;-68
2022/10/15 00:25:24;;;;;;;0.90;0.70;;;13.70;99.90;;;;;;5030591;28;20461;-68
2022/10/15 00:27:50;;;;;;;0.90;0.80;;;13.70;99.90;;;;;;5030511;28;20464;-68
2022/10/15 00:30:17;;;;;;;0.90;0.70;;;13.70;99.90;;;;;;5030583;28;20460;-68
2022/10/15 00:32:45;;;;;;;0.77;0.70;;;13.70;99.90;;;;;;5029931;28;20959;-68
2022/10/15 00:35:12;;;;;;;0.70;0.60;;;13.80;99.90;;;;;;5030419;28;20488;-68
2022/10/15 00:37:39;;;;;;;1.30;0.80;;;13.80;99.90;;;;;;5030587;28;20465;-68
2022/10/15 00:40:08;;;;;;;0.90;0.80;;;13.70;99.90;;;;;;5030506;28;20932;-68
2022/10/15 00:42:35;;;;;;;0.93;0.80;;;13.80;99.90;;;;;;5030049;28;20538;-68
2022/10/15 00:45:02;;;;;;;0.80;0.70;;;13.80;99.90;;;;;;5030253;28;20492;-68
2022/10/15 00:47:35;;;;;;;0.80;0.70;;;13.80;99.90;;;;;;5030626;28;20476;-68
2022/10/15 00:50:06;;;;;;;0.83;0.70;;;13.80;99.90;;;;;;5030013;28;20467;-68
2022/10/15 00:52:39;;;;;;;1.10;0.70;;;13.80;99.90;;;;;;5029992;28;20556;-68
2022/10/15 00:55:11;;;;;;;1.00;0.90;;;13.80;99.90;;;;;;5030002;28;21006;-68
2022/10/15 00:57:38;;;;;;;0.70;0.63;;;13.80;99.90;;;;;;5031384;28;20513;-68
2022/10/15 01:00:09;;;;;;;0.97;0.87;;;13.80;99.90;;;;;;5034107;28;20460;-68
2022/10/15 01:02:36;;;;;;;0.90;0.80;;;13.80;99.90;;;;;;5033697;28;20489;-68
2022/10/15 01:05:05;;;;;;;1.37;0.90;;;13.90;99.90;;;;;;5033891;28;20856;-68
2022/10/15 01:07:32;;;;;;;0.80;0.70;;;13.90;99.90;;;;;;5034159;28;20471;-68
2022/10/15 01:09:59;;;;;;;0.80;0.70;;;13.90;99.90;;;;;;5033800;28;20472;-68
2022/10/15 01:12:33;;;;;;;0.90;0.70;;;13.90;99.90;;;;;;5032762;28;20461;-68
2022/10/15 01:15:07;;;;;;;0.80;0.70;;;13.90;99.90;;;;;;5033332;28;20481;-68
2022/10/15 01:17:40;;;;;;;1.10;0.80;;;13.90;99.90;;;;;;5034081;28;20460;-68
2022/10/15 01:20:49;;;;;;;0.83;0.73;;;13.90;99.90;;;;;;5033489;28;20471;-68
2022/10/15 01:23:54;;;;;;;2.00;0.70;;;13.90;99.90;;;;;;5022669;28;20480;-68
2022/10/15 01:26:45;;;;;;;0.80;0.70;;;13.90;99.90;;;;;;5005643;28;20460;-68
2022/10/15 01:29:24;;;;;;;0.80;0.70;;;13.90;99.90;;;;;;5033790;28;21061;-68
2022/10/15 01:32:01;;;;;;;0.90;0.80;;;13.90;99.90;;;;;;5033002;28;20457;-68
2022/10/15 01:34:34;;;;;;;1.07;0.80;;;13.90;99.90;;;;;;5033621;28;20476;-68
2022/10/15 01:37:09;;;;;;;0.80;0.70;;;13.90;99.90;;;;;;5033315;28;20460;-68
2022/10/15 01:39:41;;;;;;;1.10;0.80;;;13.90;99.90;;;;;;5033593;28;20461;-68
2022/10/15 01:42:15;;;;;;;0.70;0.70;;;13.90;99.90;;;;;;5032822;28;20536;-68
2022/10/15 01:44:47;;;;;;;0.90;0.80;;;13.90;99.90;;;;;;5033369;28;20844;-68
2022/10/15 01:47:19;;;;;;;0.90;0.80;;;13.90;99.90;;;;;;5033325;28;20464;-68
2022/10/15 01:49:48;;;;;;;1.20;0.70;;;13.90;99.90;;;;;;5033286;28;20456;-68
2022/10/15 01:52:18;;;;;;;1.10;0.90;;;13.90;99.90;;;;;;5032379;28;20457;-68
2022/10/15 01:54:46;;;;;;;1.20;0.90;;;14.00;99.90;;;;;;5033016;28;20484;-68
2022/10/15 01:57:14;;;;;;;0.87;0.70;;;14.00;99.90;;;;;;5033136;28;20463;-68
2022/10/15 01:59:43;;;;;;;1.10;0.80;;;14.00;99.90;;;;;;5033044;28;20461;-68
2022/10/15 02:02:10;;;;;;;0.80;0.70;;;14.00;99.90;;;;;;5032415;28;20469;-68
2022/10/15 02:04:38;;;;;;;0.80;0.80;;;14.00;99.90;;;;;;5032995;28;20489;-68
2022/10/15 02:07:08;;;;;;;0.87;0.70;;;14.00;99.90;;;;;;5032717;28;20472;-68
2022/10/15 02:09:45;;;;;;;1.27;0.80;;;14.00;99.90;;;;;;5032294;28;20488;-68
2022/10/15 02:12:30;;;;;;;1.50;0.70;;;14.00;99.90;;;;;;5032499;28;20456;-68
2022/10/15 02:15:03;;;;;;;0.90;0.80;;;14.10;99.90;;;;;;5032718;28;20483;-68
2022/10/15 02:17:35;;;;;;;0.90;0.80;;;14.10;99.90;;;;;;5032908;28;20468;-68
2022/10/15 02:20:10;;;;;;;0.80;0.80;;;14.10;99.90;;;;;;5032153;28;20472;-68
2022/10/15 02:22:43;;;;;;;0.90;0.70;;;14.10;99.90;;;;;;5032204;28;20460;-68
2022/10/15 02:25:16;;;;;;;0.80;0.70;;;14.10;99.90;;;;;;5032557;28;20477;-68
2022/10/15 02:27:47;;;;;;;0.90;0.77;;;14.10;99.90;;;;;;5032760;28;20460;-67
2022/10/15 02:30:14;;;;;;;0.70;0.60;;;14.10;99.90;;;;;;5032533;28;20467;-67
2022/10/15 02:32:42;;;;;;;1.10;0.80;;;14.10;99.90;;;;;;5032092;28;20461;-67
2022/10/15 02:35:12;;;;;;;0.80;0.70;;;14.10;99.90;;;;;;5032268;28;21050;-67
2022/10/15 02:37:43;;;;;;;1.00;0.73;;;14.10;99.90;;;;;;5032492;28;20457;-67
2022/10/15 02:40:11;;;;;;;1.20;1.10;;;14.20;99.90;;;;;;5032293;28;20456;-66
2022/10/15 02:42:38;;;;;;;2.20;0.80;;;14.20;99.90;;;;;;5031911;28;20461;-66
2022/10/15 02:45:05;;;;;;;1.10;0.90;;;14.20;99.90;;;;;;5032139;28;20484;-67
2022/10/15 02:47:32;;;;;;;0.90;0.70;;;14.20;99.90;;;;;;5032505;28;20536;-67
2022/10/15 02:49:59;;;;;;;0.80;0.70;;;14.20;99.90;;;;;;5031914;28;20457;-67
2022/10/15 02:52:27;;;;;;;0.90;0.80;;;14.20;99.90;;;;;;5031468;28;20557;-67
2022/10/15 02:54:53;;;;;;;0.70;0.70;;;14.20;99.90;;;;;;5032117;28;20875;-67
2022/10/15 02:57:20;;;;;;;0.87;0.80;;;14.20;99.90;;;;;;5031834;28;20493;-67
2022/10/15 02:59:47;;;;;;;0.80;0.70;;;14.30;99.90;;;;;;5032169;28;20497;-67
2022/10/15 03:02:14;;;;;;;0.70;0.63;;;14.30;99.90;;;;;;5031241;28;20461;-67
2022/10/15 03:04:40;;;;;;;0.80;0.70;;;14.30;99.90;;;;;;5031982;28;20493;-67
2022/10/15 03:07:07;;;;;;;0.87;0.70;;;14.30;99.90;;;;;;5031652;28;20460;-67
2022/10/15 03:09:35;;;;;;;0.80;0.60;;;14.40;99.90;;;;;;5031932;28;20469;-67
2022/10/15 03:12:02;;;;;;;5.27;0.93;;;14.40;99.90;;;;;;5031174;28;20453;-67
2022/10/15 03:14:28;;;;;;;0.90;0.77;;;14.40;99.90;;;;;;5031753;28;20480;-67
2022/10/15 03:16:55;;;;;;;0.70;0.60;;;14.40;99.90;;;;;;5031742;28;20472;-67
2022/10/15 03:19:22;;;;;;;1.23;0.70;;;14.40;99.90;;;;;;5031690;28;20483;-67
2022/10/15 03:21:49;;;;;;;0.90;0.80;;;14.40;99.90;;;;;;5030423;28;20465;-67
2022/10/15 03:24:15;;;;;;;0.80;0.70;;;14.40;99.90;;;;;;5031265;28;20854;-67
2022/10/15 03:26:43;;;;;;;0.70;0.70;;;14.50;99.90;;;;;;5031660;28;20461;-67
2022/10/15 03:29:10;;;;;;;0.80;0.70;;;14.50;99.90;;;;;;5031382;28;20461;-67
2022/10/15 03:31:37;;;;;;;0.70;0.70;;;14.50;99.90;;;;;;5030887;28;20975;-67
2022/10/15 03:34:04;;;;;;;0.90;0.70;;;14.50;99.90;;;;;;5031273;28;20481;-67
2022/10/15 03:36:30;;;;;;;0.87;0.67;;;14.50;99.90;;;;;;5031455;28;20837;-67
2022/10/15 03:38:57;;;;;;;0.87;0.70;;;14.50;99.90;;;;;;5031333;28;20472;-67
2022/10/15 03:41:24;;;;;;;1.40;0.80;;;14.60;99.90;;;;;;5030655;28;20562;-67
2022/10/15 03:43:52;;;;;;;0.70;0.60;;;14.60;99.90;;;;;;5031148;28;20497;-67
2022/10/15 03:46:19;;;;;;;0.70;0.60;;;14.60;99.90;;;;;;5031006;28;20461;-67
2022/10/15 03:48:48;;;;;;;3.60;1.13;;;14.50;99.90;;;;;;5031164;28;20465;-66
2022/10/15 03:51:15;;;;;;;0.70;0.60;;;14.50;99.90;;;;;;5030308;28;20461;-67
2022/10/15 03:53:42;;;;;;;1.10;0.70;;;14.60;99.90;;;;;;5031174;28;20481;-67
2022/10/15 03:56:09;;;;;;;0.90;0.80;;;14.60;99.90;;;;;;5030878;28;20837;-67
2022/10/15 03:58:35;;;;;;;0.70;0.63;;;14.60;99.90;;;;;;5030968;28;20468;-67
2022/10/15 04:01:08;;;;;;;0.80;0.70;;;14.60;99.90;;;;;;5030770;28;20456;-67
2022/10/15 04:03:35;;;;;;;0.80;0.70;;;14.60;99.90;;;;;;5030574;28;20485;-67
2022/10/15 04:06:02;;;;;;;0.70;0.60;;;14.60;99.90;;;;;;5030755;28;20464;-67
2022/10/15 04:08:28;;;;;;;0.70;0.60;;;14.60;99.90;;;;;;5030995;28;20465;-67
2022/10/15 04:10:55;;;;;;;1.33;0.80;;;14.60;99.90;;;;;;5030724;28;20461;-67
2022/10/15 04:13:22;;;;;;;1.87;0.70;;;14.70;99.90;;;;;;5030053;28;20473;-67
2022/10/15 04:15:49;;;;;;;2.77;0.70;;;14.60;99.90;;;;;;5030912;28;20468;-67
2022/10/15 04:18:19;;;;;;;0.90;0.70;;;14.70;99.90;;;;;;5030635;28;20461;-67
2022/10/15 04:20:46;;;;;;;0.97;0.70;;;14.70;99.90;;;;;;5030393;28;20461;-67
2022/10/15 04:23:12;;;;;;;0.90;0.80;;;14.60;99.90;;;;;;5029823;28;20464;-68
2022/10/15 04:25:40;;;;;;;0.70;0.60;;;14.60;99.90;;;;;;5030681;28;20476;-67
2022/10/15 04:28:06;;;;;;;1.20;0.80;;;14.60;99.90;;;;;;5030541;28;20468;-67
2022/10/15 04:30:33;;;;;;;0.77;0.67;;;14.70;99.90;;;;;;5030694;28;20465;-66
2022/10/15 04:33:00;;;;;;;0.70;0.60;;;14.60;99.90;;;;;;5033656;28;20468;-68
2022/10/15 04:35:28;;;;;;;0.80;0.70;;;14.60;99.90;;;;;;5036952;28;20461;-67
2022/10/15 04:37:57;;;;;;;1.17;0.70;;;14.60;99.90;;;;;;5036999;28;20556;-67
2022/10/15 04:40:23;;;;;;;0.80;0.70;;;14.60;99.90;;;;;;5036717;28;20465;-67
2022/10/15 04:42:50;;;;;;;0.70;0.60;;;14.60;99.90;;;;;;5036311;28;20456;-67
2022/10/15 04:45:17;;;;;;;0.80;0.70;;;14.70;99.90;;;;;;5036904;28;20542;-67
2022/10/15 04:47:44;;;;;;;0.70;0.60;;;14.70;99.90;;;;;;5036836;28;20464;-67
2022/10/15 04:50:11;;;;;;;0.80;0.60;;;14.70;99.90;;;;;;5036293;28;20467;-67
2022/10/15 04:52:39;;;;;;;0.90;0.70;;;14.70;99.90;;;;;;5036236;28;20461;-67
2022/10/15 04:55:07;;;;;;;0.80;0.80;;;14.60;99.90;;;;;;5035809;28;20472;-67
2022/10/15 04:57:33;;;;;;;0.80;0.70;;;14.70;99.90;;;;;;5105351;23;20480;-68
2022/10/15 05:00:00;;;;;;;0.70;0.60;;;14.70;99.90;;;;;;5034153;28;20481;-68
2022/10/15 05:02:27;;;;;;;0.80;0.70;;;14.70;99.90;;;;;;5034557;28;21005;-68
2022/10/15 05:04:54;;;;;;;0.83;0.80;;;14.70;99.90;;;;;;5036431;28;20489;-67
2022/10/15 05:07:20;;;;;;;0.80;0.70;;;14.70;99.90;;;;;;5037054;28;20476;-68
2022/10/15 05:09:48;;;;;;;0.80;0.70;;;14.70;99.90;;;;;;5036759;28;20456;-68
2022/10/15 05:12:15;;;;;;;0.70;0.60;;;14.70;99.90;;;;;;5036526;28;20465;-68
2022/10/15 05:14:42;;;;;;;0.70;0.60;;;14.70;99.90;;;;;;5036693;28;20484;-67
2022/10/15 05:17:08;;;;;;;0.93;0.83;;;14.70;99.90;;;;;;5037040;28;20939;-67
2022/10/15 05:19:35;;;;;;;0.80;0.70;;;14.70;99.90;;;;;;5036698;28;20461;-67
2022/10/15 05:22:02;;;;;;;0.87;0.80;;;14.70;99.90;;;;;;5036091;28;20492;-67
2022/10/15 05:24:29;;;;;;;0.80;0.70;;;14.70;99.90;;;;;;5036727;28;20917;-67
2022/10/15 05:26:57;;;;;;;0.70;0.70;;;14.60;99.90;;;;;;5036517;28;20960;-67
2022/10/15 05:29:23;;;;;;;0.80;0.70;;;14.60;99.90;;;;;;5036639;28;20468;-67
2022/10/15 05:31:51;;;;;;;0.90;0.70;;;14.60;99.90;;;;;;5035804;28;20471;-66
2022/10/15 05:34:18;;;;;;;1.00;0.80;;;14.60;99.90;;;;;;5036470;28;20507;-66
2022/10/15 05:36:44;;;;;;;1.00;0.87;;;14.70;99.90;;;;;;5036555;28;20487;-66
2022/10/15 05:39:12;;;;;;;0.70;0.60;;;14.60;99.90;;;;;;5036768;28;20461;-66
2022/10/15 05:41:39;;;;;;;0.70;0.70;;;14.60;99.90;;;;;;5035927;28;20463;-66
2022/10/15 05:44:07;;;;;;;0.90;0.80;;;14.60;99.90;;;;;;5035191;28;20511;-66
2022/10/15 05:46:34;;;;;;;0.80;0.70;;;14.60;99.90;;;;;;5033530;28;20838;-66
2022/10/15 05:49:01;;;;;;;6.73;0.90;;;14.60;99.90;;;;;;5033587;28;20978;-65
2022/10/15 05:51:28;;;;;;;1.10;0.87;;;14.60;99.90;;;;;;5033037;28;20484;-66
2022/10/15 05:53:56;;;;;;;1.10;1.00;;;14.60;99.90;;;;;;5033214;28;20480;-66
2022/10/15 05:56:23;;;;;;;0.87;0.70;;;14.60;99.90;;;;;;5033048;28;20960;-66
2022/10/15 05:58:51;;;;;;;1.07;0.77;;;14.60;99.90;;;;;;5032822;28;20468;-66
2022/10/15 06:01:19;;;;;;;0.70;0.60;;;14.50;99.90;;;;;;5032449;28;20460;-66
2022/10/15 06:03:46;;;;;;;1.10;0.80;;;14.50;99.90;;;;;;5032781;28;20488;-65
2022/10/15 06:06:18;;;;;;;1.07;0.80;;;14.50;99.90;;;;;;5033015;28;20457;-66
2022/10/15 06:08:44;;;;;;;1.57;0.73;;;14.50;99.90;;;;;;5029755;28;20465;-66
2022/10/15 06:11:11;;;;;;;0.90;0.80;;;14.50;99.90;;;;;;5031275;28;20461;-65
2022/10/15 06:13:39;;;;;;;1.73;0.70;;;14.50;99.90;;;;;;5032063;28;20484;-66
2022/10/15 06:16:07;;;;;;;0.70;0.60;;;14.50;99.90;;;;;;5032705;28;20461;-65
2022/10/15 06:21:12;;;;;;;0.90;0.80;;;14.50;99.90;;;;;;5178027;22;20325;-69
2022/10/15 06:23:39;;;;;;;4.80;0.90;;;14.50;99.90;;;;;;5086715;28;20471;-69
2022/10/15 06:26:07;;;;;;;1.10;0.87;;;14.50;99.90;;;;;;5088136;28;20834;-69
2022/10/15 06:28:35;;;;;;;1.00;0.90;;;14.50;99.90;;;;;;5087895;28;20461;-69
2022/10/15 06:31:02;;;;;;;0.80;0.70;;;14.50;99.90;;;;;;5076441;28;20458;-69
2022/10/15 06:33:29;;;;;;;2.10;0.90;;;14.50;99.90;;;;;;5076212;28;20846;-69
2022/10/15 06:36:01;;;;;;;1.00;0.90;;;14.50;99.90;;;;;;5066635;28;21312;-68
2022/10/15 06:38:29;;;;;;;1.17;0.97;;;14.50;99.90;;;;;;5067292;28;20459;-68
2022/10/15 06:40:55;;;;;;;1.60;1.20;;;14.50;99.90;;;;;;5067274;28;20487;-68
2022/10/15 06:43:22;;;;;;;0.90;0.73;;;14.50;99.90;;;;;;5066777;28;20476;-67
2022/10/15 06:45:49;;;;;;;1.60;0.80;;;14.50;99.90;;;;;;5067021;28;20464;-67
2022/10/15 06:48:16;;;;;;;1.10;1.00;;;14.50;99.90;;;;;;5067007;28;20470;-66
2022/10/15 06:50:43;;;;;;;0.90;0.80;;;14.50;99.90;;;;;;5066915;28;20462;-67
2022/10/15 06:53:10;;;;;;;1.37;1.00;;;14.50;99.90;;;;;;5066203;28;20470;-66
2022/10/15 06:55:38;;;;;;;1.20;1.10;;;14.50;99.90;;;;;;5066912;28;20459;-67
2022/10/15 06:58:05;;;;;;;1.37;0.90;;;14.40;99.90;;;;;;5066395;28;20529;-66
2022/10/15 07:00:32;;;;;;;1.20;1.00;;;14.50;99.90;;;;;;5066028;28;20490;-68
2022/10/15 07:03:03;;;;;;;1.10;0.80;;;14.50;99.90;;;;;;5066394;28;20462;-67
2022/10/15 07:05:30;;;;;;;1.00;0.90;;;14.50;99.90;;;;;;5067024;28;20459;-67
2022/10/15 07:07:57;;;;;;;1.17;1.07;;;14.50;99.90;;;;;;5066651;28;20525;-68
2022/10/15 07:10:26;;;;;;;1.03;0.90;;;14.50;99.90;;;;;;5067151;28;20526;-68
2022/10/15 07:12:54;;;;;;;1.13;1.00;;;14.40;99.90;;;;;;5065931;28;20459;-68
2022/10/15 07:15:22;;;;;;;1.13;0.90;;;14.40;99.90;;;;;;5066658;28;21071;-69
2022/10/15 07:17:49;;;;;;;1.00;0.90;;;14.40;99.90;;;;;;5066491;28;20499;-68
2022/10/15 07:20:16;;;;;;;1.10;1.00;;;14.50;99.90;;;;;;5066773;28;20530;-69
2022/10/15 07:22:45;;;;;;;1.03;0.90;;;14.50;99.90;;;;;;5065744;28;20463;-68
2022/10/15 07:25:12;;;;;;;1.10;1.00;;;14.50;99.90;;;;;;5066325;28;20989;-68
2022/10/15 07:27:39;;;;;;;0.90;0.80;;;14.50;99.90;;;;;;5066298;28;20485;-69
2022/10/15 07:30:09;;;;;;;1.00;0.87;;;14.50;99.90;;;;;;5066197;28;20455;-68
2022/10/15 07:32:36;;;;;;;3.53;1.10;;;14.50;99.90;;;;;;5052483;28;20460;-68
2022/10/15 07:35:04;;;;;;;1.10;1.00;;;14.50;99.90;;;;;;5053053;28;20480;-68
2022/10/15 07:37:31;;;;;;;1.20;0.83;;;14.50;99.90;;;;;;5053342;28;20888;-68
2022/10/15 07:39:59;;;;;;;1.00;0.90;;;14.50;99.90;;;;;;5072089;28;20499;-68
2022/10/15 07:42:26;;;;;;;1.43;0.90;;;14.50;99.90;;;;;;5068122;28;20486;-68
2022/10/15 07:44:54;;;;;;;1.30;0.93;;;14.50;99.90;;;;;;5072260;28;20544;-68
2022/10/15 07:47:23;;;;;;;0.90;0.80;;;14.50;99.90;;;;;;5072702;28;20624;-68
2022/10/15 07:49:50;;;;;;;1.97;1.10;;;14.50;99.90;;;;;;5071973;28;20532;-68
2022/10/15 07:52:17;;;;;;;1.47;1.23;;;14.50;99.90;;;;;;5071960;28;20521;-68
2022/10/15 07:54:45;;;;;;;1.10;1.00;;;14.50;99.90;;;;;;5070524;28;20491;-68
2022/10/15 07:57:11;;;;;;;1.10;0.90;;;14.60;99.90;;;;;;5069381;28;20464;-68
2022/10/15 07:59:39;;;;;;;0.90;0.80;;;14.60;99.90;;;;;;5057371;28;20476;-69
2022/10/15 08:02:06;;;;;;;2.37;1.00;;;14.60;99.90;;;;;;5050635;28;20472;-68
2022/10/15 08:04:35;;;;;;;0.80;0.80;;;14.60;99.90;;;;;;5051807;28;20487;-68
2022/10/15 08:07:04;;;;;;;0.87;0.80;;;14.70;99.90;;;;;;5050108;28;20473;-68
2022/10/15 08:09:31;;;;;;;1.20;0.90;;;14.70;99.90;;;;;;5051831;28;20464;-68
2022/10/15 08:12:00;;;;;;;1.00;0.73;;;14.80;99.90;;;;;;5050769;28;20506;-68
2022/10/15 08:14:28;;;;;;;0.90;0.80;;;14.80;99.90;;;;;;5051984;28;20484;-68
2022/10/15 08:16:54;;;;;;;1.10;0.83;;;14.90;99.90;;;;;;5051639;28;20530;-68
2022/10/15 08:19:21;;;;;;;1.00;0.90;;;14.90;99.90;;;;;;5051815;28;21002;-68
2022/10/15 08:21:49;;;;;;;1.20;1.00;;;14.90;99.90;;;;;;5051468;28;20547;-68
2022/10/15 08:24:16;;;;;;;0.90;0.80;;;14.90;99.90;;;;;;5051602;28;20487;-68
2022/10/15 08:26:43;;;;;;;1.07;0.90;;;14.90;99.90;;;;;;5051222;28;20923;-68
2022/10/15 08:29:10;;;;;;;1.00;0.90;;;14.90;99.90;;;;;;5051336;28;20463;-68
2022/10/15 08:31:37;;;;;;;1.47;0.90;;;14.90;99.90;;;;;;5051592;28;20464;-68
2022/10/15 08:34:04;;;;;;;0.80;0.80;;;14.90;99.90;;;;;;5051605;28;20484;-68
2022/10/15 08:36:30;;;;;;;0.90;0.70;;;15.00;99.90;;;;;;5051822;28;21008;-68
2022/10/15 08:38:59;;;;;;;0.80;0.80;;;15.00;99.90;;;;;;5051364;28;20483;-68
2022/10/15 08:41:31;;;;;;;1.20;0.87;;;15.00;99.90;;;;;;5050508;28;20492;-68
2022/10/15 08:43:59;;;;;;;2.00;1.10;;;15.10;99.90;;;;;;5046744;28;20515;-68
2022/10/15 08:46:33;;;;;;;1.83;0.80;;;15.10;99.90;;;;;;5062624;28;20466;-68
2022/10/15 08:49:01;;;;;;;0.80;0.77;;;15.10;99.90;;;;;;5070574;28;20836;-68
2022/10/15 08:51:33;;;;;;;0.87;0.70;;;15.10;99.90;;;;;;5069932;28;20460;-68
2022/10/15 08:54:04;;;;;;;1.10;0.80;;;15.20;99.90;;;;;;5062030;28;20480;-68
2022/10/15 08:56:36;;;;;;;1.20;1.00;;;15.20;99.90;;;;;;5049860;28;20464;-68
2022/10/15 08:59:15;;;;;;;1.30;1.10;;;15.30;99.90;;;;;;5050364;28;21056;-68
2022/10/15 09:01:49;;;;;;;0.90;0.80;;;15.30;99.90;;;;;;5049714;28;20487;-68
2022/10/15 09:04:25;;;;;;;0.90;0.80;;;15.20;99.90;;;;;;5050511;28;20489;-69
2022/10/15 09:06:58;;;;;;;1.50;0.90;;;15.30;99.90;;;;;;5050147;28;21005;-68
2022/10/15 09:09:34;;;;;;;0.70;0.60;;;15.30;99.90;;;;;;5050306;28;20460;-68
2022/10/15 09:12:12;;;;;;;1.33;0.90;;;15.40;99.90;;;;;;5050230;28;20467;-68
2022/10/15 09:14:43;;;;;;;0.77;0.70;;;15.40;99.90;;;;;;5051253;28;20570;-68
2022/10/15 09:17:18;;;;;;;1.20;0.93;;;15.50;99.90;;;;;;5051503;28;20470;-68
2022/10/15 09:19:47;;;;;;;0.80;0.77;;;15.50;99.90;;;;;;5051185;28;20468;-68
2022/10/15 09:22:17;;;;;;;2.10;1.13;;;15.60;99.90;;;;;;5050825;28;20824;-67
2022/10/15 09:24:45;;;;;;;0.80;0.80;;;15.60;99.90;;;;;;5051342;28;20903;-68
2022/10/15 09:27:22;;;;;;;0.80;0.70;;;15.60;99.90;;;;;;5050806;28;20468;-68
2022/10/15 09:30:02;;;;;;;0.80;0.80;;;15.70;99.90;;;;;;5050746;28;20463;-68
2022/10/15 09:32:35;;;;;;;0.80;0.73;;;15.80;99.90;;;;;;5050810;28;20467;-67
2022/10/15 09:35:14;;;;;;;0.80;0.70;;;15.80;99.90;;;;;;5051382;28;20480;-68
2022/10/15 09:37:49;;;;;;;0.90;0.80;;;15.70;99.90;;;;;;5051066;28;20502;-68
2022/10/15 09:40:31;;;;;;;0.90;0.77;;;15.70;99.90;;;;;;5049717;28;20479;-68
2022/10/15 09:43:00;;;;;;;1.10;0.80;;;15.80;99.90;;;;;;5050092;28;20471;-67
2022/10/15 09:45:27;;;;;;;1.10;0.80;;;15.90;99.90;;;;;;5051253;28;20460;-68
2022/10/15 09:47:59;;;;;;;1.30;0.87;;;16.10;99.90;;;;;;5050751;28;21154;-68
2022/10/15 09:50:31;;;;;;;0.73;0.70;;;16.50;99.90;;;;;;5050952;28;20459;-68
2022/10/15 09:53:12;;;;;;;0.80;0.70;;;16.90;99.90;;;;;;5048405;28;20761;-68
2022/10/15 09:55:45;;;;;;;1.27;0.80;;;17.10;99.90;;;;;;5049072;28;20459;-68
2022/10/15 09:58:16;;;;;;;3.03;0.80;;;17.00;99.90;;;;;;5051307;28;20464;-68
2022/10/15 10:00:58;;;;;;;1.53;0.90;;;17.00;99.90;;;;;;5050850;28;20480;-68
2022/10/15 10:03:28;;;;;;;0.93;0.70;;;17.00;99.90;;;;;;5050624;28;20483;-68
2022/10/15 10:06:06;;;;;;;1.00;0.90;;;17.10;99.90;;;;;;5051231;28;20460;-68
2022/10/15 10:08:37;;;;;;;0.90;0.80;;;17.40;99.90;;;;;;5051034;28;20843;-68
2022/10/15 10:11:08;;;;;;;1.20;0.90;;;17.80;99.90;;;;;;5051504;28;20467;-68
2022/10/15 10:13:41;;;;;;;1.00;0.90;;;18.30;99.90;;;;;;5050712;28;20482;-68
2022/10/15 10:16:10;;;;;;;1.63;0.80;;;18.60;99.90;;;;;;5051516;28;20456;-68
2022/10/15 10:18:37;;;;;;;1.47;1.23;;;18.60;99.90;;;;;;5051304;28;20463;-68
2022/10/15 10:21:06;;;;;;;2.60;1.20;;;18.70;99.90;;;;;;5050843;28;20483;-67
2022/10/15 10:23:35;;;;;;;2.03;0.97;;;18.80;99.90;;;;;;5051902;28;20483;-67
2022/10/15 10:26:05;;;;;;;1.00;0.90;;;18.90;99.90;;;;;;5051531;28;20981;-67
2022/10/15 10:28:35;;;;;;;1.87;1.03;;;18.90;99.90;;;;;;5052529;28;20467;-68
2022/10/15 10:31:06;;;;;;;1.00;0.90;;;18.90;99.90;;;;;;5050871;28;20456;-67
2022/10/15 10:33:37;;;;;;;1.30;1.20;;;19.10;99.90;;;;;;5050464;28;20483;-67
2022/10/15 10:36:06;;;;;;;1.80;1.07;;;19.40;99.90;;;;;;5050838;28;20491;-67
2022/10/15 10:38:35;;;;;;;2.90;1.40;;;19.50;99.90;;;;;;5050857;28;20482;-67
2022/10/15 10:41:06;;;;;;;1.73;0.90;;;19.40;99.90;;;;;;5050258;28;20479;-67
2022/10/15 10:43:35;;;;;;;1.00;0.80;;;19.50;99.90;;;;;;5050403;28;20483;-67
2022/10/15 10:46:03;;;;;;;1.47;1.20;;;19.70;99.90;;;;;;5050690;28;20470;-67
2022/10/15 10:48:39;;;;;;;1.83;0.80;;;20.00;99.90;;;;;;5050806;28;20981;-67
2022/10/15 10:53:38;;;;;;;1.20;0.80;;;20.40;99.90;;;;;;5096580;22;20488;-68
2022/10/15 10:56:09;;;;;;;1.40;1.20;;;20.70;99.90;;;;;;5089768;28;20450;-68
2022/10/15 10:58:36;;;;;;;1.10;1.00;;;20.70;99.90;;;;;;5247148;22;20586;-67
2022/10/15 11:01:03;;;;;;;1.07;0.80;;;20.50;99.90;;;;;;5070239;28;20831;-67
2022/10/15 11:03:34;;;;;;;0.80;0.70;;;19.90;99.90;;;;;;5069758;28;20476;-66
2022/10/15 11:06:24;;;;;;;1.80;1.20;;;19.50;99.90;;;;;;5070733;28;20482;-67
2022/10/15 11:09:02;;;;;;;1.50;1.00;;;19.20;99.90;;;;;;5073994;28;20562;-66
2022/10/15 11:11:37;;;;;;;2.50;1.07;;;18.90;99.90;;;;;;5072987;28;20466;-66
2022/10/15 11:14:16;;;;;;;1.30;1.20;;;18.70;99.90;;;;;;5072562;28;20484;-67
2022/10/15 11:16:49;;;;;;;1.10;1.00;;;18.80;99.90;;;;;;5073694;28;20455;-67
2022/10/15 11:19:25;;;;;;;1.27;0.83;;;18.80;99.90;;;;;;5073706;28;20465;-66
2022/10/15 11:22:09;;;;;;;1.23;1.00;;;18.90;99.90;;;;;;5072956;28;20489;-67
2022/10/15 11:24:45;;;;;;;1.83;0.90;;;18.90;99.90;;;;;;5073159;28;20485;-66
2022/10/15 11:27:26;;;;;;;1.53;0.90;;;18.80;99.90;;;;;;5073502;28;20459;-67
2022/10/15 11:29:57;;;;;;;1.77;0.93;;;18.70;99.90;;;;;;5070999;28;20470;-66
2022/10/15 11:32:37;;;;;;;1.00;0.90;;;18.50;99.90;;;;;;5073082;28;20460;-67
2022/10/15 11:35:30;;;;;;;1.30;0.77;;;18.40;99.90;;;;;;5073080;28;20993;-66
2022/10/15 11:38:11;;;;;;;0.90;0.73;;;18.30;99.90;;;;;;5071547;28;20909;-65
2022/10/15 11:40:48;;;;;;;1.07;0.93;;;18.20;99.90;;;;;;5073478;28;20494;-66
2022/10/15 11:43:28;;;;;;;2.23;0.90;;;18.30;99.90;;;;;;5072960;28;20462;-66
2022/10/15 11:46:03;;;;;;;1.00;0.90;;;18.30;99.90;;;;;;5073940;28;20828;-67
2022/10/15 11:48:40;;;;;;;1.00;0.90;;;18.30;99.90;;;;;;5071841;28;20458;-66
2022/10/15 11:51:17;;;;;;;1.00;0.90;;;18.20;99.90;;;;;;5072303;28;20470;-66
2022/10/15 11:54:05;;;;;;;1.03;0.80;;;18.10;99.90;;;;;;5072741;28;20489;-66
2022/10/15 11:56:36;;;;;;;1.10;0.77;;;18.00;99.90;;;;;;5072369;28;20559;-66
2022/10/15 11:59:15;;;;;;;1.10;0.90;;;18.00;99.90;;;;;;5071998;28;20482;-66
2022/10/15 12:01:47;;;;;;;1.00;0.83;;;18.20;99.90;;;;;;5072035;28;20479;-66
2022/10/15 12:04:18;;;;;;;1.87;1.27;;;18.60;99.90;;;;;;5071695;28;20483;-66
2022/10/15 12:06:51;;;;;;;1.10;0.97;;;18.90;99.90;;;;;;5072084;28;20473;-66
2022/10/15 12:09:25;;;;;;;0.90;0.80;;;18.90;99.90;;;;;;5072406;28;20558;-65
2022/10/15 12:11:59;;;;;;;2.90;0.80;;;18.90;99.90;;;;;;5072202;28;20517;-65
2022/10/15 12:14:34;;;;;;;0.90;0.80;;;18.90;99.90;;;;;;5072310;28;20486;-66
2022/10/15 12:17:07;;;;;;;2.47;0.97;;;18.80;99.90;;;;;;5071951;28;20523;-66
2022/10/15 12:19:40;;;;;;;1.27;0.93;;;18.60;99.90;;;;;;5072069;28;20473;-66
2022/10/15 12:22:10;;;;;;;1.23;1.10;;;18.40;99.90;;;;;;5071245;28;20513;-66
2022/10/15 12:24:53;;;;;;;3.10;0.97;;;18.20;99.90;;;;;;5071712;28;20480;-66
2022/10/15 12:27:27;;;;;;;1.20;1.00;;;18.10;99.90;;;;;;5072016;28;20904;-66
2022/10/15 12:30:23;;;;;;;2.60;0.90;;;18.00;99.90;;;;;;5071712;28;20886;-66
2022/10/15 12:32:50;;;;;;;0.80;0.80;;;17.80;99.90;;;;;;5071417;28;20992;-66
2022/10/15 12:35:22;;;;;;;1.33;1.03;;;17.80;99.90;;;;;;5070729;28;20487;-66
2022/10/15 12:37:50;;;;;;;1.10;1.00;;;17.60;99.90;;;;;;5071938;28;20950;-66
2022/10/15 12:40:29;;;;;;;1.00;0.90;;;17.50;99.90;;;;;;5071620;28;20537;-66
2022/10/15 12:42:59;;;;;;;1.20;1.10;;;17.40;99.90;;;;;;5070415;28;21008;-66
2022/10/15 12:45:34;;;;;;;1.00;0.90;;;17.40;99.90;;;;;;5071546;28;20490;-66
2022/10/15 12:48:23;;;;;;;0.93;0.77;;;17.40;99.90;;;;;;5072044;28;20832;-66
2022/10/15 12:50:50;;;;;;;1.30;1.20;;;17.30;99.90;;;;;;5071576;28;20483;-66
2022/10/15 12:53:41;;;;;;;1.23;1.10;;;17.30;99.90;;;;;;5070851;28;20470;-66
2022/10/15 12:56:22;;;;;;;1.00;0.90;;;17.10;99.90;;;;;;5066752;28;21012;-66
2022/10/15 12:58:50;;;;;;;1.10;1.00;;;17.10;99.90;;;;;;5070770;28;20470;-66
2022/10/15 13:01:51;;;;;;;2.70;0.87;;;17.20;99.90;;;;;;5070780;28;21048;-66
2022/10/15 13:04:18;;;;;;;1.93;1.30;;;17.10;99.90;;;;;;5071440;28;20511;-66
2022/10/15 13:06:46;;;;;;;1.00;0.90;;;17.00;99.90;;;;;;5070771;28;20474;-66
2022/10/15 13:09:26;;;;;;;1.30;0.80;;;17.00;99.90;;;;;;5070822;28;20471;-66